createdAt,value
2022-12-08T00:01:04.205Z,5.82
2022-12-08T00:03:37.802Z,5.71
2022-12-08T00:06:22.222Z,5.66
2022-12-08T00:08:54.824Z,5.57
2022-12-08T00:11:30.884Z,5.59
2022-12-08T00:14:02.024Z,5.69
2022-12-08T00:16:35.777Z,5.57
2022-12-08T00:19:09.730Z,5.66
2022-12-08T00:21:49.632Z,5.66
2022-12-08T00:24:34.807Z,5.67
2022-12-08T00:27:09.541Z,5.71
2022-12-08T00:29:42.470Z,5.80
2022-12-08T00:32:16.228Z,5.68
2022-12-08T00:34:52.538Z,5.71
2022-12-08T00:37:24.175Z,5.79
2022-12-08T00:39:52.152Z,5.77
2022-12-08T00:42:31.616Z,5.86
2022-12-08T00:45:03.647Z,5.76
2022-12-08T00:47:38.208Z,5.80
2022-12-08T00:50:08.813Z,5.76
2022-12-08T00:52:42.629Z,5.85
2022-12-08T00:55:12.338Z,5.83
2022-12-08T00:57:47.735Z,5.69
2022-12-08T01:00:20.952Z,5.77
2022-12-08T01:02:54.691Z,5.71
2022-12-08T01:05:27.931Z,5.77
2022-12-08T01:08:01.843Z,5.71
2022-12-08T01:10:30.074Z,5.62
2022-12-08T01:13:05.574Z,5.75
2022-12-08T01:15:36.640Z,5.71
2022-12-08T01:18:11.004Z,5.69
2022-12-08T01:20:43.773Z,5.61
2022-12-08T01:23:17.214Z,5.62
2022-12-08T01:25:50.297Z,5.53
2022-12-08T01:28:21.135Z,5.65
2022-12-08T01:30:54.732Z,5.66
2022-12-08T01:33:26.066Z,5.60
2022-12-08T01:36:00.235Z,5.58
2022-12-08T01:38:28.102Z,5.59
2022-12-08T01:41:01.306Z,5.59
2022-12-08T01:44:01.997Z,5.57
2022-12-08T01:46:39.100Z,5.64
2022-12-08T01:49:20.870Z,5.58
2022-12-08T01:52:03.996Z,5.49
2022-12-08T01:54:48.477Z,5.53
2022-12-08T01:57:28.425Z,5.53
2022-12-08T02:00:10.906Z,5.50
2022-12-08T02:02:56.936Z,5.52
2022-12-08T02:05:28.588Z,5.39
2022-12-08T02:08:08.748Z,5.37
2022-12-08T02:10:49.407Z,5.35
2022-12-08T02:13:23.587Z,5.44
2022-12-08T02:16:31.597Z,5.38
2022-12-08T02:19:32.315Z,5.52
2022-12-08T02:22:14.923Z,5.56
2022-12-08T02:24:59.395Z,5.48
2022-12-08T02:27:59.917Z,5.46
2022-12-08T02:31:09.477Z,5.42
2022-12-08T02:33:42.867Z,5.39
2022-12-08T02:36:27.870Z,5.44
2022-12-08T02:39:22.743Z,5.44
2022-12-08T02:42:05.220Z,5.44
2022-12-08T02:44:46.930Z,5.51
2022-12-08T02:47:28.260Z,5.47
2022-12-08T02:50:02.270Z,5.52
2022-12-08T02:52:33.262Z,5.47
2022-12-08T02:55:14.972Z,5.59
2022-12-08T02:57:51.469Z,5.51
2022-12-08T03:00:30.141Z,5.61
2022-12-08T03:03:12.086Z,5.55
2022-12-08T03:06:34.025Z,5.43
2022-12-08T03:09:09.952Z,5.44
2022-12-08T03:11:54.120Z,5.48
2022-12-08T03:14:29.433Z,5.45
2022-12-08T03:17:06.685Z,5.38
2022-12-08T03:19:44.331Z,5.45
2022-12-08T03:22:21.710Z,5.47
2022-12-08T03:24:53.998Z,5.53
2022-12-08T03:27:32.624Z,5.42
2022-12-08T03:30:08.795Z,5.63
2022-12-08T03:32:54.940Z,5.62
2022-12-08T03:35:31.249Z,5.46
2022-12-08T03:38:20.440Z,5.58
2022-12-08T03:40:51.063Z,5.52
2022-12-08T03:43:21.536Z,5.58
2022-12-08T03:45:54.979Z,5.62
2022-12-08T03:48:25.433Z,5.61
2022-12-08T03:50:55.711Z,5.61
2022-12-08T03:53:29.583Z,5.58
2022-12-08T03:56:13.902Z,5.66
2022-12-08T03:58:43.565Z,5.65
2022-12-08T04:01:14.391Z,5.69
2022-12-08T04:03:41.859Z,5.64
2022-12-08T04:06:12.252Z,5.65
2022-12-08T04:08:42.866Z,5.64
2022-12-08T04:11:15.982Z,5.69
2022-12-08T04:13:46.784Z,5.71
2022-12-08T04:16:19.949Z,5.64
2022-12-08T04:18:56.959Z,5.58
2022-12-08T04:21:29.894Z,5.50
2022-12-08T04:24:01.620Z,7.38
2022-12-08T04:26:35.014Z,10.65
2022-12-08T04:29:08.798Z,11.70
2022-12-08T04:31:36.648Z,11.84
2022-12-08T04:34:04.196Z,12.85
2022-12-08T04:36:35.357Z,11.07
2022-12-08T04:39:12.476Z,11.27
2022-12-08T04:41:49.012Z,10.61
2022-12-08T04:44:24.258Z,11.43
2022-12-08T04:46:55.377Z,9.38
2022-12-08T04:49:28.115Z,7.66
2022-12-08T04:51:59.744Z,6.95
2022-12-08T04:54:30.362Z,6.34
2022-12-08T04:57:01.273Z,6.07
2022-12-08T04:59:32.720Z,5.96
2022-12-08T05:02:04.159Z,5.83
2022-12-08T05:04:34.884Z,5.84
2022-12-08T05:07:02.434Z,5.82
2022-12-08T05:09:33.175Z,5.72
2022-12-08T05:12:03.719Z,5.68
2022-12-08T05:14:34.278Z,5.66
2022-12-08T05:17:09.289Z,5.74
2022-12-08T05:19:36.790Z,5.84
2022-12-08T05:22:05.088Z,5.81
2022-12-08T05:24:32.709Z,5.73
2022-12-08T05:27:03.117Z,5.81
2022-12-08T05:29:30.405Z,5.84
2022-12-08T05:32:09.190Z,5.67
2022-12-08T05:34:36.449Z,5.74
2022-12-08T05:37:03.994Z,5.80
2022-12-08T05:39:32.099Z,5.64
2022-12-08T05:42:07.654Z,5.65
2022-12-08T05:44:37.502Z,5.65
2022-12-08T05:47:12.945Z,5.80
2022-12-08T05:49:43.397Z,5.75
2022-12-08T05:52:13.651Z,5.84
2022-12-08T05:54:45.165Z,5.76
2022-12-08T05:57:15.161Z,5.74
2022-12-08T05:59:48.023Z,5.75
2022-12-08T06:02:19.214Z,5.75
2022-12-08T06:04:49.918Z,5.65
2022-12-08T06:07:20.984Z,5.72
2022-12-08T06:09:51.589Z,5.70
2022-12-08T06:12:22.661Z,5.77
2022-12-08T06:14:53.683Z,5.80
2022-12-08T06:17:29.109Z,5.69
2022-12-08T06:20:00.054Z,5.76
2022-12-08T06:22:30.367Z,5.69
2022-12-08T06:24:58.853Z,5.72
2022-12-08T06:27:33.123Z,5.84
2022-12-08T06:30:07.083Z,5.88
2022-12-08T06:32:37.846Z,5.66
2022-12-08T06:35:08.266Z,5.74
2022-12-08T06:37:38.446Z,5.75
2022-12-08T06:40:12.193Z,5.73
2022-12-08T06:42:43.741Z,5.64
2022-12-08T06:45:11.681Z,5.71
2022-12-08T06:47:42.127Z,5.59
2022-12-08T06:50:14.123Z,5.46
2022-12-08T06:52:54.361Z,5.61
2022-12-08T06:58:24.508Z,5.79
2022-12-08T07:00:52.809Z,5.70
2022-12-08T07:03:29.201Z,5.80
2022-12-08T07:06:07.727Z,5.86
2022-12-08T07:08:43.408Z,5.80
2022-12-08T07:11:21.457Z,5.79
2022-12-08T07:13:52.205Z,5.80
2022-12-08T07:16:30.783Z,5.85
2022-12-08T07:19:01.404Z,5.89
2022-12-08T07:21:38.180Z,5.77
2022-12-08T07:24:10.910Z,5.79
2022-12-08T07:26:43.799Z,5.91
2022-12-08T07:29:14.229Z,5.95
2022-12-08T07:31:45.047Z,5.98
2022-12-08T07:34:16.047Z,5.97
2022-12-08T07:36:43.634Z,5.97
2022-12-08T07:39:13.277Z,5.90
2022-12-08T07:41:45.894Z,5.95
2022-12-08T07:44:19.547Z,5.98
2022-12-08T07:46:52.932Z,6.00
2022-12-08T07:49:20.597Z,6.00
2022-12-08T07:51:51.070Z,5.96
2022-12-08T07:54:32.256Z,5.90
2022-12-08T07:57:03.929Z,5.92
2022-12-08T07:59:37.808Z,5.91
2022-12-08T08:02:24.418Z,5.88
2022-12-08T08:04:56.756Z,5.83
2022-12-08T08:07:24.019Z,5.86
2022-12-08T08:09:57.741Z,5.95
2022-12-08T08:12:32.354Z,6.01
2022-12-08T08:15:07.909Z,6.03
2022-12-08T08:17:41.107Z,5.94
2022-12-08T08:20:15.205Z,5.95
2022-12-08T08:22:51.581Z,6.00
2022-12-08T08:25:21.529Z,5.81
2022-12-08T08:27:59.768Z,5.83
2022-12-08T08:30:33.165Z,5.88
2022-12-08T08:33:03.560Z,6.15
2022-12-08T08:35:34.597Z,6.03
2022-12-08T08:38:01.707Z,5.92
2022-12-08T08:40:35.384Z,5.97
2022-12-08T08:43:08.806Z,6.07
2022-12-08T08:45:41.820Z,6.07
2022-12-08T08:48:15.195Z,6.17
2022-12-08T08:50:44.942Z,6.16
2022-12-08T08:53:15.021Z,6.25
2022-12-08T08:55:45.709Z,6.19
2022-12-08T08:58:19.340Z,6.37
2022-12-08T09:00:59.428Z,6.49
2022-12-08T09:03:32.786Z,6.41
2022-12-08T09:06:00.295Z,6.52
2022-12-08T09:08:31.389Z,6.46
2022-12-08T09:11:01.853Z,6.39
2022-12-08T09:13:35.689Z,6.44
2022-12-08T09:16:08.498Z,6.47
2022-12-08T09:18:42.144Z,6.51
2022-12-08T09:21:14.910Z,6.48
2022-12-08T09:23:43.185Z,6.35
2022-12-08T09:26:24.534Z,6.38
2022-12-08T09:28:55.402Z,6.44
2022-12-08T09:31:26.188Z,6.40
2022-12-08T09:34:03.905Z,6.43
2022-12-08T09:36:38.390Z,6.47
2022-12-08T09:39:14.471Z,6.33
2022-12-08T09:42:09.427Z,6.39
2022-12-08T09:45:22.237Z,6.60
2022-12-08T09:48:14.923Z,6.36
2022-12-08T09:50:52.274Z,6.53
2022-12-08T09:53:33.667Z,6.55
2022-12-08T09:56:18.926Z,6.45
2022-12-08T09:59:02.468Z,6.46
2022-12-08T10:01:40.895Z,6.56
2022-12-08T10:04:33.991Z,6.31
2022-12-08T10:07:10.631Z,6.30
2022-12-08T10:09:52.474Z,6.40
2022-12-08T10:12:22.556Z,6.49
2022-12-08T10:15:10.873Z,6.53
2022-12-08T10:17:46.082Z,6.28
2022-12-08T10:20:23.697Z,6.61
2022-12-08T10:23:15.754Z,6.41
2022-12-08T10:25:51.183Z,6.48
2022-12-08T10:28:24.387Z,6.55
2022-12-08T10:30:54.764Z,6.62
2022-12-08T10:33:26.868Z,6.77
2022-12-08T10:35:59.040Z,6.82
2022-12-08T10:38:31.106Z,6.78
2022-12-08T10:41:07.257Z,6.78
2022-12-08T10:43:49.582Z,6.81
2022-12-08T10:46:25.414Z,6.61
2022-12-08T10:48:59.777Z,6.57
2022-12-08T10:51:35.318Z,6.78
2022-12-08T10:54:03.691Z,6.68
2022-12-08T10:56:33.872Z,6.86
2022-12-08T10:59:19.823Z,6.93
2022-12-08T11:01:56.088Z,6.86
2022-12-08T11:04:35.237Z,6.80
2022-12-08T11:07:09.681Z,6.78
2022-12-08T11:09:45.659Z,6.95
2022-12-08T11:12:20.655Z,7.01
2022-12-08T11:14:57.267Z,6.62
2022-12-08T11:17:35.269Z,6.75
2022-12-08T11:20:09.010Z,6.96
2022-12-08T11:22:43.453Z,6.85
2022-12-08T11:25:16.751Z,6.55
2022-12-08T11:27:49.604Z,6.65
2022-12-08T11:30:30.472Z,6.79
2022-12-08T11:33:11.875Z,6.62
2022-12-08T11:35:43.801Z,6.75
2022-12-08T11:38:22.276Z,6.63
2022-12-08T11:40:57.690Z,6.77
2022-12-08T11:43:34.291Z,6.72
2022-12-08T11:46:09.993Z,6.86
2022-12-08T11:48:50.846Z,9.18
2022-12-08T11:51:39.938Z,7.74
2022-12-08T11:54:27.412Z,7.21
2022-12-08T11:57:05.340Z,6.92
2022-12-08T11:59:43.098Z,6.89
2022-12-08T12:02:20.639Z,7.07
2022-12-08T12:05:07.305Z,6.85
2022-12-08T12:07:53.240Z,6.99
2022-12-08T12:10:42.441Z,6.80
2022-12-08T12:13:34.627Z,6.91
2022-12-08T12:16:23.323Z,6.45
2022-12-08T12:19:15.611Z,6.67
2022-12-08T12:22:05.470Z,6.66
2022-12-08T12:24:38.020Z,6.57
2022-12-08T12:27:14.045Z,6.61
2022-12-08T12:29:59.045Z,6.88
2022-12-08T12:32:39.918Z,6.63
2022-12-08T12:35:27.485Z,6.78
2022-12-08T12:38:04.136Z,6.77
2022-12-08T12:40:42.073Z,6.84
2022-12-08T12:43:27.617Z,6.51
2022-12-08T12:46:23.759Z,6.71
2022-12-08T12:49:29.535Z,6.76
2022-12-08T12:52:00.115Z,6.91
2022-12-08T12:54:37.551Z,6.80
2022-12-08T12:57:09.799Z,6.85
2022-12-08T13:00:12.288Z,6.78
2022-12-08T13:02:51.877Z,6.72
2022-12-08T13:05:30.343Z,6.65
2022-12-08T13:08:36.750Z,6.69
2022-12-08T13:11:11.804Z,6.67
2022-12-08T13:14:02.651Z,6.41
2022-12-08T13:16:41.397Z,6.32
2022-12-08T13:19:19.719Z,6.56
2022-12-08T13:21:50.356Z,6.54
2022-12-08T13:24:33.109Z,6.36
2022-12-08T13:27:06.578Z,6.51
2022-12-08T13:29:40.124Z,6.50
2022-12-08T13:32:08.040Z,6.59
2022-12-08T13:34:51.501Z,6.47
2022-12-08T13:37:54.782Z,6.68
2022-12-08T13:40:32.111Z,6.74
2022-12-08T13:43:13.463Z,6.71
2022-12-08T13:46:48.812Z,6.39
2022-12-08T13:57:40.324Z,6.33
2022-12-08T14:00:18.870Z,6.58
2022-12-08T14:02:53.055Z,6.50
2022-12-08T14:05:41.119Z,6.41
2022-12-08T14:08:58.865Z,6.38
2022-12-08T14:11:31.469Z,6.51
2022-12-08T14:14:04.373Z,6.49
2022-12-08T14:16:42.391Z,6.38
2022-12-08T14:19:26.074Z,6.41
2022-12-08T14:22:11.819Z,6.55
2022-12-08T14:24:48.049Z,6.56
2022-12-08T14:27:22.933Z,6.60
2022-12-08T14:29:58.094Z,6.60
2022-12-08T14:32:28.108Z,6.67
2022-12-08T14:35:01.831Z,6.56
2022-12-08T14:37:54.602Z,6.62
2022-12-08T14:40:46.201Z,6.75
2022-12-08T14:43:23.887Z,6.91
2022-12-08T14:45:58.131Z,6.50
2022-12-08T14:48:31.997Z,6.54
2022-12-08T14:51:08.003Z,6.56
2022-12-08T14:53:46.127Z,6.66
2022-12-08T14:56:36.606Z,6.54
2022-12-08T14:59:21.025Z,6.45
2022-12-08T15:01:57.039Z,6.54
2022-12-08T15:04:28.831Z,6.61
2022-12-08T15:07:10.241Z,6.57
2022-12-08T15:09:47.020Z,6.43
2022-12-08T15:12:26.664Z,6.50
2022-12-08T15:15:00.638Z,6.39
2022-12-08T15:17:40.696Z,6.50
2022-12-08T15:20:46.891Z,6.50
2022-12-08T15:23:31.891Z,6.53
2022-12-08T15:26:02.474Z,6.49
2022-12-08T15:28:35.912Z,6.45
2022-12-08T15:31:04.656Z,6.49
2022-12-08T15:33:39.158Z,6.62
2022-12-08T15:36:13.366Z,6.44
2022-12-08T15:38:47.076Z,6.37
2022-12-08T15:41:21.115Z,6.53
2022-12-08T15:43:51.439Z,6.46
2022-12-08T15:46:21.541Z,8.16
2022-12-08T15:48:57.744Z,10.34
2022-12-08T15:51:28.400Z,10.62
2022-12-08T15:53:57.053Z,7.99
2022-12-08T15:56:45.420Z,7.43
2022-12-08T15:59:32.659Z,6.90
2022-12-08T16:02:00.297Z,6.96
2022-12-08T16:05:18.257Z,6.60
2022-12-08T16:07:28.728Z,6.59
2022-12-08T16:10:02.161Z,6.44
2022-12-08T16:13:19.970Z,6.71
2022-12-08T16:18:28.423Z,6.47
2022-12-08T16:21:41.903Z,6.50
2022-12-08T16:23:55.993Z,6.56
2022-12-08T16:27:22.136Z,6.57
2022-12-08T16:29:20.577Z,6.40
2022-12-08T16:31:53.496Z,6.59
2022-12-08T16:34:27.133Z,6.43
2022-12-08T16:36:57.260Z,6.55
2022-12-08T16:39:28.733Z,6.32
2022-12-08T16:41:59.928Z,6.58
2022-12-08T16:44:31.652Z,6.58
2022-12-08T16:47:08.830Z,6.41
2022-12-08T16:49:40.747Z,6.41
2022-12-08T16:52:11.282Z,6.55
2022-12-08T16:54:41.627Z,6.58
2022-12-08T16:57:15.955Z,6.50
2022-12-08T16:59:46.392Z,6.26
2022-12-08T17:02:16.436Z,6.54
2022-12-08T17:04:47.472Z,6.46
2022-12-08T17:07:17.785Z,6.49
2022-12-08T17:09:47.664Z,6.36
2022-12-08T17:12:15.409Z,6.49
2022-12-08T17:14:45.416Z,6.49
2022-12-08T17:17:18.515Z,6.39
2022-12-08T17:19:46.169Z,6.33
2022-12-08T17:22:22.095Z,6.43
2022-12-08T17:24:52.134Z,6.54
2022-12-08T17:27:22.495Z,6.49
2022-12-08T17:29:52.271Z,6.53
2022-12-08T17:32:22.537Z,6.63
2022-12-08T17:34:57.511Z,6.43
2022-12-08T17:37:28.701Z,6.45
2022-12-08T17:39:58.596Z,6.35
2022-12-08T17:42:29.615Z,6.43
2022-12-08T17:45:00.735Z,8.43
2022-12-08T17:47:30.849Z,7.00
2022-12-08T17:50:01.139Z,6.46
2022-12-08T17:52:34.542Z,6.67
2022-12-08T17:55:04.452Z,6.44
2022-12-08T17:57:31.710Z,6.27
2022-12-08T18:00:03.477Z,6.34
2022-12-08T18:02:31.678Z,6.50
2022-12-08T18:04:59.392Z,6.38
2022-12-08T18:07:27.030Z,6.22
2022-12-08T18:09:54.591Z,6.26
2022-12-08T18:12:30.616Z,6.17
2022-12-08T18:15:07.611Z,6.03
2022-12-08T18:17:40.736Z,5.98
2022-12-08T18:20:17.621Z,6.09
2022-12-08T18:22:47.737Z,6.25
2022-12-08T18:25:15.490Z,6.26
2022-12-08T18:27:43.396Z,6.13
2022-12-08T18:30:23.100Z,6.00
2022-12-08T18:32:57.045Z,6.07
2022-12-08T18:35:33.896Z,6.06
2022-12-08T18:38:07.683Z,6.07
2022-12-08T18:40:38.305Z,6.05
2022-12-08T18:43:05.503Z,6.33
2022-12-08T18:45:37.037Z,6.07
2022-12-08T18:48:10.086Z,6.02
2022-12-08T18:50:44.294Z,6.12
2022-12-08T18:53:16.706Z,6.19
2022-12-08T18:55:48.095Z,6.13
2022-12-08T18:58:19.355Z,6.14
2022-12-08T19:00:49.940Z,6.23
2022-12-08T19:03:17.057Z,6.17
2022-12-08T19:05:45.235Z,6.13
2022-12-08T19:08:16.692Z,6.17
2022-12-08T19:10:46.824Z,6.30
2022-12-08T19:13:19.789Z,6.38
2022-12-08T19:15:51.016Z,6.38
2022-12-08T19:18:25.692Z,6.25
2022-12-08T19:21:09.170Z,6.21
2022-12-08T19:23:53.756Z,6.20
2022-12-08T19:26:35.780Z,6.33
2022-12-08T19:29:21.412Z,6.11
2022-12-08T19:31:51.891Z,6.25
2022-12-08T19:34:31.693Z,6.31
2022-12-08T19:37:07.954Z,6.21
2022-12-08T19:39:44.622Z,6.22
2022-12-08T19:42:27.542Z,6.27
2022-12-08T19:45:11.365Z,6.26
2022-12-08T19:47:45.813Z,6.32
2022-12-08T19:50:23.389Z,6.28
2022-12-08T19:53:08.497Z,6.25
2022-12-08T19:55:42.797Z,6.36
2022-12-08T19:58:16.898Z,6.28
2022-12-08T20:00:49.668Z,6.25
2022-12-08T20:03:21.872Z,6.34
2022-12-08T20:05:52.631Z,6.31
2022-12-08T20:08:35.081Z,6.27
2022-12-08T20:11:09.085Z,6.32
2022-12-08T20:13:49.088Z,6.51
2022-12-08T20:16:22.800Z,6.40
2022-12-08T20:18:56.485Z,6.49
2022-12-08T20:21:28.030Z,6.45
2022-12-08T20:23:59.127Z,6.47
2022-12-08T20:26:33.072Z,6.46
2022-12-08T20:29:01.685Z,6.35
2022-12-08T20:31:37.659Z,6.32
2022-12-08T20:34:18.041Z,6.49
2022-12-08T20:36:48.460Z,6.50
2022-12-08T20:39:22.217Z,6.43
2022-12-08T20:42:01.842Z,6.45
2022-12-08T20:44:35.657Z,6.41
2022-12-08T20:47:12.663Z,6.40
2022-12-08T20:49:49.111Z,6.33
2022-12-08T20:52:26.950Z,6.43
2022-12-08T20:55:00.582Z,6.38
2022-12-08T20:57:34.159Z,6.37
2022-12-08T21:00:11.565Z,6.32
2022-12-08T21:02:54.857Z,6.24
2022-12-08T21:05:33.218Z,6.34
2022-12-08T21:08:10.080Z,6.26
2022-12-08T21:10:52.714Z,6.36
2022-12-08T21:13:28.842Z,6.24
2022-12-08T21:16:02.807Z,6.35
2022-12-08T21:18:35.847Z,6.35
2022-12-08T21:21:15.217Z,6.39
2022-12-08T21:23:52.624Z,6.36
2022-12-08T21:26:32.773Z,6.33
2022-12-08T21:29:05.126Z,6.38
2022-12-08T21:31:35.038Z,6.32
2022-12-08T21:34:14.063Z,6.44
2022-12-08T21:36:55.678Z,6.47
2022-12-08T21:39:30.467Z,6.43
2022-12-08T21:42:07.662Z,6.37
2022-12-08T21:44:42.037Z,6.36
2022-12-08T21:47:16.481Z,6.40
2022-12-08T21:49:47.437Z,6.40
2022-12-08T21:52:17.847Z,6.37
2022-12-08T21:54:49.156Z,6.44
2022-12-08T21:57:17.347Z,6.49
2022-12-08T21:59:57.992Z,6.28
2022-12-08T22:02:28.842Z,6.38
2022-12-08T22:05:01.237Z,6.54
2022-12-08T22:07:37.482Z,6.45
2022-12-08T22:10:18.102Z,6.46
2022-12-08T22:12:56.304Z,6.45
2022-12-08T22:15:29.789Z,6.43
2022-12-08T22:18:01.691Z,6.43
2022-12-08T22:20:42.289Z,6.35
2022-12-08T22:23:29.272Z,6.38
2022-12-08T22:26:03.410Z,6.52
2022-12-08T22:28:38.575Z,6.48
2022-12-08T22:31:21.972Z,6.29
2022-12-08T22:33:53.683Z,6.44
2022-12-08T22:36:28.844Z,6.40
2022-12-08T22:39:05.437Z,6.37
2022-12-08T22:41:36.150Z,6.33
2022-12-08T22:44:07.953Z,6.46
2022-12-08T22:46:44.471Z,6.46
2022-12-08T22:49:29.367Z,6.43
2022-12-08T22:52:00.199Z,6.33
2022-12-08T22:54:36.880Z,6.34
2022-12-08T22:57:08.023Z,6.36
2022-12-08T22:59:46.829Z,6.32
2022-12-08T23:02:16.728Z,6.27
2022-12-08T23:04:47.146Z,6.43
2022-12-08T23:07:24.769Z,6.41
2022-12-08T23:10:04.768Z,6.45
2022-12-08T23:12:40.946Z,6.42
2022-12-08T23:15:17.199Z,6.52
2022-12-08T23:17:53.786Z,6.31
2022-12-08T23:20:24.604Z,6.34
2022-12-08T23:22:54.643Z,6.43
2022-12-08T23:25:28.602Z,6.39
2022-12-08T23:28:07.100Z,6.41
2022-12-08T23:30:45.693Z,6.51
2022-12-08T23:33:25.583Z,6.44
2022-12-08T23:36:02.196Z,6.34
2022-12-08T23:38:39.589Z,6.24
2022-12-08T23:41:09.169Z,6.21
2022-12-08T23:43:43.301Z,6.20
2022-12-08T23:46:10.638Z,6.36
2022-12-08T23:48:45.569Z,6.38
2022-12-08T23:51:22.324Z,6.39
2022-12-08T23:53:50.763Z,6.42
2022-12-08T23:56:29.908Z,6.35
2022-12-08T23:59:03.832Z,6.42
